Time,TemperatureF,DewpointF,PressureIn,WindDirection,WindDirectionDegrees,WindSpeedMPH,WindSpeedGustMPH,Humidity,HourlyPrecipIn,Conditions,Clouds,dailyrainin,SoftwareType,DateUTC
2013-05-12 00:00:00,68.2,64.5,30.00,ENE,74,0.0,2.0,88,0.00,,---,0.00,VWS V14.01,2013-05-12 04:00:00,
2013-05-12 00:01:00,68.2,64.5,30.00,East,79,0.0,0.0,88,0.00,,---,0.00,VWS V14.01,2013-05-12 04:01:00,
2013-05-12 00:06:00,68.1,64.7,30.01,East,79,0.0,0.0,89,0.00,,---,0.00,VWS V14.01,2013-05-12 04:06:00,
2013-05-12 00:10:00,68.0,64.6,30.01,East,81,0.0,1.0,89,0.00,,---,0.00,VWS V14.01,2013-05-12 04:10:00,
2013-05-12 00:11:00,68.0,64.6,30.00,ENE,78,0.0,0.0,89,0.00,,---,0.00,VWS V14.01,2013-05-12 04:11:00,
2013-05-12 00:16:00,68.0,64.6,30.00,ENE,69,0.0,2.0,89,0.00,,---,0.00,VWS V14.01,2013-05-12 04:16:00,
2013-05-12 00:20:00,68.0,64.6,30.00,East,81,0.0,2.0,89,0.00,,---,0.00,VWS V14.01,2013-05-12 04:20:00,
2013-05-12 00:21:00,68.0,64.6,30.01,NNE,23,0.0,0.0,89,0.00,,---,0.00,VWS V14.01,2013-05-12 04:21:00,
2013-05-12 00:26:00,67.9,64.5,30.01,NNE,23,0.0,1.0,89,0.00,,---,0.00,VWS V14.01,2013-05-12 04:26:00,
2013-05-12 00:30:00,67.9,64.5,30.01,SW,228,0.0,1.0,89,0.00,,---,0.00,VWS V14.01,2013-05-12 04:30:00,
2013-05-12 00:31:00,67.9,64.5,30.01,SW,228,0.0,0.0,89,0.00,,---,0.00,VWS V14.01,2013-05-12 04:31:00,
2013-05-12 00:36:00,67.8,64.4,30.01,SW,217,0.0,1.0,89,0.00,,---,0.00,VWS V14.01,2013-05-12 04:36:00,
2013-05-12 00:40:00,67.7,64.3,30.01,SW,217,0.0,1.0,89,0.00,,---,0.00,VWS V14.01,2013-05-12 04:40:00,
2013-05-12 00:41:00,67.7,64.3,30.01,SE,131,0.0,1.0,89,0.00,,---,0.00,VWS V14.01,2013-05-12 04:41:00,
2013-05-12 00:46:00,67.8,64.4,30.01,South,173,0.0,1.0,89,0.00,,---,0.00,VWS V14.01,2013-05-12 04:46:00,
2013-05-12 00:50:00,67.8,64.4,30.01,South,173,0.0,1.0,89,0.00,,---,0.00,VWS V14.01,2013-05-12 04:50:00,
2013-05-12 00:51:00,67.8,64.4,30.01,South,173,0.0,0.0,89,0.00,,---,0.00,VWS V14.01,2013-05-12 04:51:00,
2013-05-12 00:57:00,67.8,64.8,30.01,SSW,205,0.0,0.0,90,0.00,,---,0.00,VWS V14.01,2013-05-12 04:57:00,
2013-05-12 01:00:00,67.8,64.8,30.01,SSW,204,0.0,0.0,90,0.00,,---,0.00,VWS V14.01,2013-05-12 05:00:00,
2013-05-12 01:02:00,67.8,64.8,30.01,SSW,205,0.0,0.0,90,0.00,,---,0.00,VWS V14.01,2013-05-12 05:02:00,
2013-05-12 01:07:00,67.9,64.9,30.00,East,84,0.0,0.0,90,0.00,,---,0.00,VWS V14.01,2013-05-12 05:07:00,
2013-05-12 01:10:00,67.9,64.9,30.00,East,83,0.0,0.0,90,0.00,,---,0.00,VWS V14.01,2013-05-12 05:10:00,
2013-05-12 01:12:00,68.0,65.0,30.00,East,81,0.0,0.0,90,0.00,,---,0.00,VWS V14.01,2013-05-12 05:12:00,
2013-05-12 01:17:00,68.1,65.1,30.00,East,82,0.0,0.0,90,0.00,,---,0.00,VWS V14.01,2013-05-12 05:17:00,
2013-05-12 01:20:00,68.1,65.1,30.00,NW,311,0.0,0.0,90,0.00,,---,0.00,VWS V14.01,2013-05-12 05:20:00,
2013-05-12 01:22:00,68.2,64.8,30.00,NW,319,0.0,0.0,89,0.00,,---,0.00,VWS V14.01,2013-05-12 05:22:00,
2013-05-12 01:27:00,68.3,64.9,30.00,WSW,246,0.0,3.0,89,0.00,,---,0.00,VWS V14.01,2013-05-12 05:27:00,
2013-05-12 01:30:00,68.3,64.9,30.00,WSW,245,0.0,3.0,89,0.00,,---,0.00,VWS V14.01,2013-05-12 05:30:00,
2013-05-12 01:32:00,68.3,64.9,30.00,ENE,60,1.0,1.0,89,0.00,,---,0.00,VWS V14.01,2013-05-12 05:32:00,
2013-05-12 01:37:00,68.4,65.0,29.99,WSW,248,0.0,2.0,89,0.00,,---,0.00,VWS V14.01,2013-05-12 05:37:00,
2013-05-12 01:40:00,68.4,65.0,29.99,SSW,211,1.0,2.0,89,0.00,,---,0.00,VWS V14.01,2013-05-12 05:40:00,
2013-05-12 01:42:00,68.4,65.0,29.99,ENE,71,1.0,2.0,89,0.00,,---,0.00,VWS V14.01,2013-05-12 05:42:00,
2013-05-12 01:47:00,68.4,65.0,29.99,WNW,293,0.0,3.0,89,0.00,,---,0.00,VWS V14.01,2013-05-12 05:47:00,
2013-05-12 01:50:00,68.3,64.9,29.99,WNW,292,0.0,3.0,89,0.00,,---,0.00,VWS V14.01,2013-05-12 05:50:00,
2013-05-12 01:52:00,68.3,64.9,29.99,South,189,0.0,1.0,89,0.00,,---,0.00,VWS V14.01,2013-05-12 05:52:00,
2013-05-12 01:57:00,68.2,64.8,29.99,East,91,0.0,1.0,89,0.00,,---,0.00,VWS V14.01,2013-05-12 05:57:00,
2013-05-12 02:00:00,68.2,64.8,29.99,East,90,0.0,1.0,89,0.00,,---,0.00,VWS V14.01,2013-05-12 06:00:00,
2013-05-12 02:02:00,68.1,64.7,29.99,East,90,0.0,0.0,89,0.00,,---,0.00,VWS V14.01,2013-05-12 06:02:00,
2013-05-12 02:07:00,67.9,64.5,29.98,East,80,0.0,0.0,89,0.00,,---,0.00,VWS V14.01,2013-05-12 06:07:00,
2013-05-12 02:10:00,67.9,64.5,29.98,East,81,0.0,0.0,89,0.00,,---,0.00,VWS V14.01,2013-05-12 06:10:00,
2013-05-12 02:12:00,67.8,64.4,29.98,South,176,0.0,0.0,89,0.00,,---,0.00,VWS V14.01,2013-05-12 06:12:00,
2013-05-12 02:17:00,67.7,64.3,29.98,SSE,151,0.0,0.0,89,0.00,,---,0.00,VWS V14.01,2013-05-12 06:17:00,
2013-05-12 02:20:00,67.6,64.2,29.98,SSE,149,0.0,0.0,89,0.00,,---,0.00,VWS V14.01,2013-05-12 06:20:00,
2013-05-12 02:22:00,67.5,64.2,29.98,SSE,149,0.0,0.0,89,0.00,,---,0.00,VWS V14.01,2013-05-12 06:22:00,
2013-05-12 02:27:00,67.4,64.4,29.97,SSE,149,0.0,0.0,90,0.00,,---,0.00,VWS V14.01,2013-05-12 06:27:00,
2013-05-12 02:30:00,67.4,64.4,29.97,SSE,149,0.0,0.0,90,0.00,,---,0.00,VWS V14.01,2013-05-12 06:30:00,
2013-05-12 02:32:00,67.3,64.3,29.98,SSE,149,0.0,0.0,90,0.00,,---,0.00,VWS V14.01,2013-05-12 06:32:00,
2013-05-12 02:37:00,67.1,64.1,29.98,SSE,152,0.0,0.0,90,0.00,,---,0.00,VWS V14.01,2013-05-12 06:37:00,
2013-05-12 02:40:00,67.1,64.1,29.98,SSE,152,0.0,0.0,90,0.00,,---,0.00,VWS V14.01,2013-05-12 06:40:00,
2013-05-12 02:42:00,67.0,64.0,29.97,SSE,152,0.0,0.0,90,0.00,,---,0.00,VWS V14.01,2013-05-12 06:42:00,
2013-05-12 02:47:00,66.8,63.8,29.97,SSE,153,0.0,0.0,90,0.00,,---,0.00,VWS V14.01,2013-05-12 06:47:00,
2013-05-12 02:50:00,66.8,63.8,29.97,SW,219,0.0,0.0,90,0.00,,---,0.00,VWS V14.01,2013-05-12 06:50:00,
2013-05-12 02:53:00,66.7,63.7,29.97,SW,219,0.0,0.0,90,0.00,,---,0.00,VWS V14.01,2013-05-12 06:53:00,
2013-05-12 02:58:00,66.4,63.4,29.97,SW,219,0.0,0.0,90,0.00,,---,0.00,VWS V14.01,2013-05-12 06:58:00,
2013-05-12 03:00:00,66.4,63.4,29.97,SW,220,0.0,0.0,90,0.00,,---,0.00,VWS V14.01,2013-05-12 07:00:00,
2013-05-12 03:03:00,66.3,63.6,29.98,SW,219,0.0,0.0,91,0.00,,---,0.00,VWS V14.01,2013-05-12 07:03:00,
2013-05-12 03:08:00,66.2,63.5,29.98,SW,219,0.0,0.0,91,0.00,,---,0.00,VWS V14.01,2013-05-12 07:08:00,
2013-05-12 03:10:00,66.2,63.5,29.98,SW,219,0.0,0.0,91,0.00,,---,0.00,VWS V14.01,2013-05-12 07:10:00,
2013-05-12 03:13:00,66.1,63.4,29.97,SW,219,0.0,0.0,91,0.00,,---,0.00,VWS V14.01,2013-05-12 07:13:00,
2013-05-12 03:18:00,66.0,63.3,29.97,SW,219,0.0,0.0,91,0.00,,---,0.00,VWS V14.01,2013-05-12 07:18:00,
2013-05-12 03:20:00,66.0,63.3,29.97,SW,219,0.0,0.0,91,0.00,,---,0.00,VWS V14.01,2013-05-12 07:20:00,
2013-05-12 03:23:00,65.9,63.2,29.97,SW,219,0.0,0.0,91,0.00,,---,0.00,VWS V14.01,2013-05-12 07:23:00,
2013-05-12 03:28:00,65.7,63.0,29.96,SW,219,0.0,0.0,91,0.00,,---,0.00,VWS V14.01,2013-05-12 07:28:00,
2013-05-12 03:30:00,65.6,62.9,29.96,SW,220,0.0,0.0,91,0.00,,---,0.00,VWS V14.01,2013-05-12 07:30:00,
2013-05-12 03:33:00,65.6,63.2,29.97,SW,219,0.0,0.0,92,0.00,,---,0.00,VWS V14.01,2013-05-12 07:33:00,
2013-05-12 03:38:00,65.8,63.4,29.97,WSW,250,0.0,0.0,92,0.00,,---,0.00,VWS V14.01,2013-05-12 07:38:00,
2013-05-12 03:40:00,65.8,63.4,29.97,SW,232,0.0,0.0,92,0.00,,---,0.00,VWS V14.01,2013-05-12 07:40:00,
2013-05-12 03:43:00,66.0,63.6,29.97,West,269,0.0,0.0,92,0.00,,---,0.00,VWS V14.01,2013-05-12 07:43:00,
2013-05-12 03:48:00,66.2,63.8,29.97,West,269,0.0,0.0,92,0.00,,---,0.00,VWS V14.01,2013-05-12 07:48:00,
2013-05-12 03:50:00,66.2,63.8,29.97,West,268,0.0,0.0,92,0.00,,---,0.00,VWS V14.01,2013-05-12 07:50:00,
2013-05-12 03:53:00,66.2,63.8,29.96,West,268,0.0,0.0,92,0.00,,---,0.00,VWS V14.01,2013-05-12 07:53:00,
2013-05-12 03:58:00,66.1,63.7,29.97,West,268,0.0,0.0,92,0.00,,---,0.00,VWS V14.01,2013-05-12 07:58:00,
2013-05-12 04:00:00,66.1,63.7,29.97,West,268,0.0,0.0,92,0.00,,---,0.00,VWS V14.01,2013-05-12 08:00:00,
2013-05-12 04:03:00,66.1,63.7,29.97,West,267,0.0,0.0,92,0.00,,---,0.00,VWS V14.01,2013-05-12 08:03:00,
2013-05-12 04:08:00,66.1,63.7,29.97,West,267,0.0,0.0,92,0.00,,---,0.00,VWS V14.01,2013-05-12 08:08:00,
2013-05-12 04:10:00,66.1,63.7,29.97,West,267,0.0,0.0,92,0.00,,---,0.00,VWS V14.01,2013-05-12 08:10:00,
2013-05-12 04:13:00,66.1,63.7,29.97,West,267,0.0,0.0,92,0.00,,---,0.00,VWS V14.01,2013-05-12 08:13:00,
2013-05-12 04:18:00,66.0,63.6,29.97,West,267,0.0,0.0,92,0.00,,---,0.00,VWS V14.01,2013-05-12 08:18:00,
2013-05-12 04:20:00,66.0,63.6,29.97,West,267,0.0,0.0,92,0.00,,---,0.00,VWS V14.01,2013-05-12 08:20:00,
2013-05-12 04:23:00,66.0,63.6,29.97,West,267,0.0,0.0,92,0.00,,---,0.00,VWS V14.01,2013-05-12 08:23:00,
2013-05-12 04:28:00,65.9,63.5,29.96,West,267,0.0,0.0,92,0.00,,---,0.00,VWS V14.01,2013-05-12 08:28:00,
2013-05-12 04:30:00,65.8,63.4,29.96,West,267,0.0,0.0,92,0.00,,---,0.00,VWS V14.01,2013-05-12 08:30:00,
2013-05-12 04:33:00,65.7,63.3,29.96,West,267,0.0,0.0,92,0.00,,---,0.00,VWS V14.01,2013-05-12 08:33:00,
2013-05-12 04:38:00,65.6,63.2,29.95,West,267,0.0,0.0,92,0.00,,---,0.00,VWS V14.01,2013-05-12 08:38:00,
2013-05-12 04:40:00,65.6,63.2,29.95,West,267,0.0,0.0,92,0.00,,---,0.00,VWS V14.01,2013-05-12 08:40:00,
2013-05-12 04:43:00,65.8,63.7,29.95,West,267,0.0,0.0,93,0.00,,---,0.00,VWS V14.01,2013-05-12 08:43:00,
2013-05-12 04:48:00,65.9,63.8,29.95,West,267,0.0,0.0,93,0.00,,---,0.00,VWS V14.01,2013-05-12 08:48:00,
2013-05-12 04:50:00,65.9,63.8,29.95,West,267,0.0,0.0,93,0.00,,---,0.00,VWS V14.01,2013-05-12 08:50:00,
2013-05-12 04:53:00,66.0,63.9,29.96,West,267,0.0,0.0,93,0.00,,---,0.00,VWS V14.01,2013-05-12 08:53:00,
2013-05-12 04:58:00,66.2,64.1,29.95,West,266,0.0,0.0,93,0.00,,---,0.00,VWS V14.01,2013-05-12 08:58:00,
2013-05-12 05:00:00,66.2,64.1,29.95,West,266,0.0,0.0,93,0.00,,---,0.00,VWS V14.01,2013-05-12 09:00:00,
2013-05-12 05:03:00,66.2,64.1,29.95,West,266,0.0,0.0,93,0.00,,---,0.00,VWS V14.01,2013-05-12 09:03:00,
2013-05-12 05:08:00,66.1,64.0,29.95,West,266,0.0,0.0,93,0.00,,---,0.00,VWS V14.01,2013-05-12 09:08:00,
2013-05-12 05:10:00,66.1,64.0,29.95,West,266,0.0,0.0,93,0.00,,---,0.00,VWS V14.01,2013-05-12 09:10:00,
2013-05-12 05:13:00,66.0,63.9,29.95,West,266,0.0,0.0,93,0.00,,---,0.00,VWS V14.01,2013-05-12 09:13:00,
2013-05-12 05:18:00,66.1,64.0,29.94,ESE,105,0.0,0.0,93,0.00,,---,0.00,VWS V14.01,2013-05-12 09:18:00,
2013-05-12 05:20:00,66.1,64.0,29.94,ESE,105,0.0,0.0,93,0.00,,---,0.00,VWS V14.01,2013-05-12 09:20:00,
2013-05-12 05:23:00,66.1,64.0,29.94,ESE,103,0.0,0.0,93,0.00,,---,0.00,VWS V14.01,2013-05-12 09:23:00,
2013-05-12 05:28:00,66.0,63.9,29.94,ESE,103,0.0,0.0,93,0.00,,---,0.00,VWS V14.01,2013-05-12 09:28:00,
2013-05-12 05:30:00,66.0,63.9,29.94,ESE,103,0.0,0.0,93,0.00,,---,0.00,VWS V14.01,2013-05-12 09:30:00,
2013-05-12 05:33:00,65.9,63.8,29.94,ESE,103,0.0,0.0,93,0.00,,---,0.00,VWS V14.01,2013-05-12 09:33:00,
2013-05-12 05:38:00,65.9,63.8,29.94,ESE,103,0.0,0.0,93,0.00,,---,0.00,VWS V14.01,2013-05-12 09:38:00,
2013-05-12 05:40:00,65.9,63.8,29.94,ESE,103,0.0,0.0,93,0.00,,---,0.00,VWS V14.01,2013-05-12 09:40:00,
2013-05-12 05:43:00,65.8,63.7,29.95,ESE,103,0.0,0.0,93,0.00,,---,0.00,VWS V14.01,2013-05-12 09:43:00,
2013-05-12 05:48:00,65.8,63.7,29.96,ESE,103,0.0,0.0,93,0.00,,---,0.00,VWS V14.01,2013-05-12 09:48:00,
2013-05-12 05:50:00,65.8,63.7,29.96,ESE,103,0.0,0.0,93,0.00,,---,0.00,VWS V14.01,2013-05-12 09:50:00,
2013-05-12 05:53:00,65.7,63.6,29.97,ESE,103,0.0,0.0,93,0.00,,---,0.00,VWS V14.01,2013-05-12 09:53:00,
2013-05-12 05:58:00,65.6,63.5,29.97,ESE,103,0.0,0.0,93,0.00,,---,0.00,VWS V14.01,2013-05-12 09:58:00,
2013-05-12 06:00:00,65.6,63.5,29.97,ESE,103,0.0,0.0,93,0.00,,---,0.00,VWS V14.01,2013-05-12 10:00:00,
2013-05-12 06:03:00,65.5,63.4,29.97,ESE,103,0.0,0.0,93,0.00,,---,0.00,VWS V14.01,2013-05-12 10:03:00,
2013-05-12 06:08:00,65.4,63.3,29.97,ESE,103,0.0,0.0,93,0.00,,---,0.00,VWS V14.01,2013-05-12 10:08:00,
2013-05-12 06:10:00,65.4,63.3,29.97,ESE,103,0.0,0.0,93,0.00,,---,0.00,VWS V14.01,2013-05-12 10:10:00,
2013-05-12 06:13:00,65.4,63.3,29.97,ESE,103,0.0,0.0,93,0.00,,---,0.00,VWS V14.01,2013-05-12 10:13:00,
2013-05-12 06:18:00,65.4,63.3,29.97,ESE,103,0.0,0.0,93,0.00,,---,0.00,VWS V14.01,2013-05-12 10:18:00,
2013-05-12 06:20:00,65.4,63.3,29.97,ESE,103,0.0,0.0,93,0.00,,---,0.00,VWS V14.01,2013-05-12 10:20:00,
2013-05-12 06:23:00,65.3,63.2,29.97,ESE,103,0.0,0.0,93,0.00,,---,0.00,VWS V14.01,2013-05-12 10:23:00,
2013-05-12 06:28:00,65.2,63.1,29.97,ESE,103,0.0,0.0,93,0.00,,---,0.00,VWS V14.01,2013-05-12 10:28:00,
2013-05-12 06:30:00,65.2,63.1,29.97,ESE,103,0.0,0.0,93,0.00,,---,0.00,VWS V14.01,2013-05-12 10:30:00,
2013-05-12 06:33:00,65.1,63.0,29.97,ESE,103,0.0,0.0,93,0.00,,---,0.00,VWS V14.01,2013-05-12 10:33:00,
2013-05-12 06:39:00,65.0,62.9,29.98,ESE,103,0.0,0.0,93,0.00,,---,0.00,VWS V14.01,2013-05-12 10:39:00,
2013-05-12 06:40:00,65.0,62.9,29.97,ESE,103,0.0,0.0,93,0.00,,---,0.00,VWS V14.01,2013-05-12 10:40:00,
2013-05-12 06:44:00,64.9,62.8,29.98,ESE,103,0.0,0.0,93,0.00,,---,0.00,VWS V14.01,2013-05-12 10:44:00,
2013-05-12 06:49:00,64.9,63.1,29.98,ESE,103,0.0,0.0,94,0.00,,---,0.00,VWS V14.01,2013-05-12 10:49:00,
2013-05-12 06:50:00,64.9,63.1,29.98,ESE,103,0.0,0.0,94,0.00,,---,0.00,VWS V14.01,2013-05-12 10:50:00,
2013-05-12 06:54:00,64.9,63.1,29.98,ESE,103,0.0,0.0,94,0.00,,---,0.00,VWS V14.01,2013-05-12 10:54:00,
2013-05-12 06:59:00,65.0,63.2,29.98,ESE,103,0.0,0.0,94,0.00,,---,0.00,VWS V14.01,2013-05-12 10:59:00,
2013-05-12 07:00:00,65.0,63.2,29.98,ESE,103,0.0,0.0,94,0.00,,---,0.00,VWS V14.01,2013-05-12 11:00:00,
2013-05-12 07:04:00,65.1,63.3,29.99,ESE,103,0.0,0.0,94,0.00,,---,0.00,VWS V14.01,2013-05-12 11:04:00,
2013-05-12 07:09:00,65.2,63.4,29.99,ESE,103,0.0,0.0,94,0.00,,---,0.00,VWS V14.01,2013-05-12 11:09:00,
2013-05-12 07:10:00,65.2,63.4,29.99,ESE,103,0.0,0.0,94,0.00,,---,0.00,VWS V14.01,2013-05-12 11:10:00,
2013-05-12 07:14:00,65.5,63.7,29.99,ESE,103,0.0,0.0,94,0.00,,---,0.00,VWS V14.01,2013-05-12 11:14:00,
2013-05-12 07:19:00,65.8,64.0,29.99,ESE,103,0.0,0.0,94,0.00,,---,0.00,VWS V14.01,2013-05-12 11:19:00,
2013-05-12 07:20:00,65.7,63.9,29.99,ESE,103,0.0,0.0,94,0.00,,---,0.00,VWS V14.01,2013-05-12 11:20:00,
2013-05-12 07:24:00,66.3,64.5,29.99,ESE,103,0.0,0.0,94,0.00,,---,0.00,VWS V14.01,2013-05-12 11:24:00,
2013-05-12 07:29:00,66.8,65.0,29.99,ESE,103,0.0,0.0,94,0.00,,---,0.00,VWS V14.01,2013-05-12 11:29:00,
2013-05-12 07:30:00,66.7,64.9,29.99,ESE,103,0.0,0.0,94,0.00,,---,0.00,VWS V14.01,2013-05-12 11:30:00,
2013-05-12 07:34:00,67.3,65.5,30.00,West,267,0.0,0.0,94,0.00,,---,0.00,VWS V14.01,2013-05-12 11:34:00,
2013-05-12 07:39:00,67.7,65.9,30.00,West,267,0.0,0.0,94,0.00,,---,0.00,VWS V14.01,2013-05-12 11:39:00,
2013-05-12 07:40:00,67.6,65.8,30.00,West,267,0.0,0.0,94,0.00,,---,0.00,VWS V14.01,2013-05-12 11:40:00,
2013-05-12 07:44:00,68.1,66.3,30.00,SW,222,0.0,0.0,94,0.00,,---,0.00,VWS V14.01,2013-05-12 11:44:00,
2013-05-12 07:49:00,68.7,66.6,30.00,WSW,248,0.0,0.0,93,0.00,,---,0.00,VWS V14.01,2013-05-12 11:49:00,
2013-05-12 07:50:00,68.6,66.5,30.00,SW,218,0.0,0.0,93,0.00,,---,0.00,VWS V14.01,2013-05-12 11:50:00,
2013-05-12 07:54:00,69.0,66.9,30.00,WNW,283,0.0,0.0,93,0.00,,---,0.00,VWS V14.01,2013-05-12 11:54:00,
2013-05-12 07:59:00,69.8,67.4,30.00,SW,218,0.0,0.0,92,0.00,,---,0.00,VWS V14.01,2013-05-12 11:59:00,
2013-05-12 08:00:00,69.7,67.3,30.00,SW,218,0.0,0.0,92,0.00,,---,0.00,VWS V14.01,2013-05-12 12:00:00,
2013-05-12 08:04:00,70.2,67.4,30.00,WNW,283,0.0,0.0,91,0.00,,---,0.00,VWS V14.01,2013-05-12 12:04:00,
2013-05-12 08:09:00,70.6,67.5,30.00,West,267,0.0,0.0,90,0.00,,---,0.00,VWS V14.01,2013-05-12 12:09:00,
2013-05-12 08:10:00,70.5,67.4,30.00,West,267,0.0,0.0,90,0.00,,---,0.00,VWS V14.01,2013-05-12 12:10:00,
2013-05-12 08:14:00,71.2,68.1,30.00,West,267,0.0,0.0,90,0.00,,---,0.00,VWS V14.01,2013-05-12 12:14:00,
2013-05-12 08:19:00,71.7,68.3,30.00,WNW,294,0.0,0.0,89,0.00,,---,0.00,VWS V14.01,2013-05-12 12:19:00,
2013-05-12 08:20:00,71.6,68.2,30.00,West,278,0.0,0.0,89,0.00,,---,0.00,VWS V14.01,2013-05-12 12:20:00,
2013-05-12 08:24:00,71.9,67.8,30.00,WNW,285,0.0,0.0,87,0.00,,---,0.00,VWS V14.01,2013-05-12 12:24:00,
2013-05-12 08:29:00,72.1,68.0,30.01,West,271,0.0,1.0,87,0.00,,---,0.00,VWS V14.01,2013-05-12 12:29:00,
2013-05-12 08:30:00,72.1,68.0,30.01,West,264,0.0,1.0,87,0.00,,---,0.00,VWS V14.01,2013-05-12 12:30:00,
2013-05-12 08:34:00,72.4,68.3,30.01,WNW,291,0.0,2.0,87,0.00,,---,0.00,VWS V14.01,2013-05-12 12:34:00,
2013-05-12 08:40:00,72.7,68.3,30.01,West,270,0.0,1.0,86,0.00,,---,0.00,VWS V14.01,2013-05-12 12:40:00,
2013-05-12 08:45:00,73.2,68.8,30.01,WNW,283,1.0,2.0,86,0.00,,---,0.00,VWS V14.01,2013-05-12 12:45:00,
2013-05-12 08:50:00,73.5,68.7,30.01,WNW,301,0.0,1.0,85,0.00,,---,0.00,VWS V14.01,2013-05-12 12:50:00,
2013-05-12 08:55:00,74.0,69.2,30.01,West,266,3.0,4.0,85,0.00,,---,0.00,VWS V14.01,2013-05-12 12:55:00,
2013-05-12 09:00:00,74.2,68.7,30.01,WNW,295,2.0,5.0,83,0.00,,---,0.00,VWS V14.01,2013-05-12 13:00:00,
2013-05-12 09:05:00,74.5,68.7,30.01,West,274,0.0,5.0,82,0.00,,---,0.00,VWS V14.01,2013-05-12 13:05:00,
2013-05-12 09:10:00,75.1,69.2,30.01,West,259,1.0,3.0,82,0.00,,---,0.00,VWS V14.01,2013-05-12 13:10:00,
2013-05-12 09:15:00,75.7,69.1,30.01,West,264,0.0,3.0,80,0.00,,---,0.00,VWS V14.01,2013-05-12 13:15:00,
2013-05-12 09:20:00,76.3,69.3,30.02,West,270,1.0,4.0,79,0.00,,---,0.00,VWS V14.01,2013-05-12 13:20:00,
2013-05-12 09:25:00,76.7,69.3,30.02,WNW,283,2.0,5.0,78,0.00,,---,0.00,VWS V14.01,2013-05-12 13:25:00,
2013-05-12 09:30:00,77.0,69.2,30.02,West,267,3.0,4.0,77,0.00,,---,0.00,VWS V14.01,2013-05-12 13:30:00,
2013-05-12 09:35:00,77.5,69.3,30.02,WSW,242,1.0,5.0,76,0.00,,---,0.00,VWS V14.01,2013-05-12 13:35:00,
2013-05-12 09:40:00,77.9,69.3,30.02,West,274,2.0,2.0,75,0.00,,---,0.00,VWS V14.01,2013-05-12 13:40:00,
2013-05-12 09:45:00,78.3,68.9,30.01,WSW,255,2.0,4.0,73,0.00,,---,0.00,VWS V14.01,2013-05-12 13:45:00,
2013-05-12 09:50:00,78.6,69.6,30.01,WSW,255,1.0,3.0,74,0.00,,---,0.00,VWS V14.01,2013-05-12 13:50:00,
2013-05-12 09:55:00,79.4,69.6,30.01,West,274,0.0,4.0,72,0.00,,---,0.00,VWS V14.01,2013-05-12 13:55:00,
2013-05-12 10:00:00,80.2,69.1,30.01,West,273,2.0,4.0,69,0.00,,---,0.00,VWS V14.01,2013-05-12 14:00:00,
2013-05-12 10:05:00,80.4,68.4,30.01,West,260,2.0,7.0,67,0.00,,---,0.00,VWS V14.01,2013-05-12 14:05:00,
2013-05-12 10:10:00,80.6,68.2,30.01,WSW,249,1.0,3.0,66,0.00,,---,0.00,VWS V14.01,2013-05-12 14:10:00,
2013-05-12 10:15:00,80.6,68.2,30.01,West,268,2.0,4.0,66,0.00,,---,0.00,VWS V14.01,2013-05-12 14:15:00,
2013-05-12 10:20:00,80.4,68.0,30.01,West,269,1.0,2.0,66,0.00,,---,0.00,VWS V14.01,2013-05-12 14:20:00,
2013-05-12 10:25:00,81.0,67.7,30.01,WNW,291,5.0,5.0,64,0.00,,---,0.00,VWS V14.01,2013-05-12 14:25:00,
2013-05-12 10:30:00,81.2,67.9,30.01,West,281,1.0,5.0,64,0.00,,---,0.00,VWS V14.01,2013-05-12 14:30:00,
2013-05-12 10:35:00,81.7,67.9,30.01,WSW,241,1.0,5.0,63,0.00,,---,0.00,VWS V14.01,2013-05-12 14:35:00,
2013-05-12 10:40:00,81.5,68.2,30.01,West,276,2.0,4.0,64,0.00,,---,0.00,VWS V14.01,2013-05-12 14:40:00,
2013-05-12 10:45:00,81.6,68.2,30.01,West,261,3.0,4.0,64,0.00,,---,0.00,VWS V14.01,2013-05-12 14:45:00,
2013-05-12 10:50:00,81.8,68.0,30.01,WNW,287,1.0,4.0,63,0.00,,---,0.00,VWS V14.01,2013-05-12 14:50:00,
2013-05-12 10:51:00,81.8,68.4,30.01,WNW,295,1.0,4.0,64,0.00,,---,0.00,VWS V14.01,2013-05-12 14:51:00,
2013-05-12 10:56:00,82.4,69.0,30.01,West,259,1.0,4.0,64,0.00,,---,0.00,VWS V14.01,2013-05-12 14:56:00,
2013-05-12 11:00:00,82.7,68.8,30.01,WNW,284,2.0,4.0,63,0.00,,---,0.00,VWS V14.01,2013-05-12 15:00:00,
2013-05-12 11:01:00,82.8,68.9,30.00,West,281,2.0,3.0,63,0.00,,---,0.00,VWS V14.01,2013-05-12 15:01:00,
2013-05-12 11:06:00,83.1,68.3,30.00,WNW,283,1.0,4.0,61,0.00,,---,0.00,VWS V14.01,2013-05-12 15:06:00,
2013-05-12 11:10:00,83.3,68.5,30.00,WSW,257,1.0,4.0,61,0.00,,---,0.00,VWS V14.01,2013-05-12 15:10:00,
2013-05-12 11:11:00,83.4,68.6,30.00,WSW,249,1.0,4.0,61,0.00,,---,0.00,VWS V14.01,2013-05-12 15:11:00,
2013-05-12 11:16:00,83.6,68.7,30.00,WSW,252,1.0,4.0,61,0.00,,---,0.00,VWS V14.01,2013-05-12 15:16:00,
2013-05-12 11:20:00,83.6,68.3,30.00,WSW,248,3.0,4.0,60,0.00,,---,0.00,VWS V14.01,2013-05-12 15:20:00,
2013-05-12 11:21:00,83.7,67.4,30.00,WSW,250,2.0,4.0,58,0.00,,---,0.00,VWS V14.01,2013-05-12 15:21:00,
2013-05-12 11:26:00,83.9,67.6,30.00,West,280,2.0,5.0,58,0.00,,---,0.00,VWS V14.01,2013-05-12 15:26:00,
2013-05-12 11:30:00,84.0,68.1,30.00,West,278,1.0,5.0,59,0.00,,---,0.00,VWS V14.01,2013-05-12 15:30:00,
2013-05-12 11:31:00,84.2,67.8,30.00,SSE,165,2.0,6.0,58,0.00,,---,0.00,VWS V14.01,2013-05-12 15:31:00,
2013-05-12 11:36:00,85.0,68.1,30.00,West,280,2.0,6.0,57,0.00,,---,0.00,VWS V14.01,2013-05-12 15:36:00,
2013-05-12 11:40:00,85.2,68.3,30.00,West,264,1.0,6.0,57,0.00,,---,0.00,VWS V14.01,2013-05-12 15:40:00,
2013-05-12 11:41:00,85.1,67.1,29.99,WNW,290,2.0,4.0,55,0.00,,---,0.00,VWS V14.01,2013-05-12 15:41:00,
2013-05-12 11:46:00,85.8,68.3,30.00,West,264,1.0,5.0,56,0.00,,---,0.00,VWS V14.01,2013-05-12 15:46:00,
2013-05-12 11:50:00,86.2,67.6,30.00,West,262,2.0,5.0,54,0.00,,---,0.00,VWS V14.01,2013-05-12 15:50:00,
2013-05-12 11:51:00,86.2,67.6,29.99,WSW,257,3.0,6.0,54,0.00,,---,0.00,VWS V14.01,2013-05-12 15:51:00,
2013-05-12 11:56:00,86.3,68.2,29.99,WNW,283,1.0,6.0,55,0.00,,---,0.00,VWS V14.01,2013-05-12 15:56:00,
2013-05-12 12:00:00,86.5,68.4,30.00,WSW,252,3.0,6.0,55,0.00,,---,0.00,VWS V14.01,2013-05-12 16:00:00,
2013-05-12 12:01:00,86.4,67.8,29.99,West,276,2.0,5.0,54,0.00,,---,0.00,VWS V14.01,2013-05-12 16:01:00,
2013-05-12 12:06:00,85.8,68.3,29.99,WNW,285,3.0,9.0,56,0.00,,---,0.00,VWS V14.01,2013-05-12 16:06:00,
2013-05-12 12:10:00,85.9,68.9,29.99,West,259,1.0,9.0,57,0.00,,---,0.00,VWS V14.01,2013-05-12 16:10:00,
2013-05-12 12:11:00,86.3,68.8,29.99,West,267,1.0,4.0,56,0.00,,---,0.00,VWS V14.01,2013-05-12 16:11:00,
2013-05-12 12:16:00,87.0,68.4,30.00,WSW,256,6.0,6.0,54,0.00,,---,0.00,VWS V14.01,2013-05-12 16:16:00,
2013-05-12 12:20:00,87.1,69.0,30.00,WNW,287,4.0,6.0,55,0.00,,---,0.00,VWS V14.01,2013-05-12 16:20:00,
2013-05-12 12:21:00,86.8,68.2,29.99,West,278,2.0,4.0,54,0.00,,---,0.00,VWS V14.01,2013-05-12 16:21:00,
2013-05-12 12:26:00,87.3,68.1,29.99,WSW,240,4.0,7.0,53,0.00,,---,0.00,VWS V14.01,2013-05-12 16:26:00,
2013-05-12 12:30:00,87.2,68.0,29.99,WSW,255,4.0,7.0,53,0.00,,---,0.00,VWS V14.01,2013-05-12 16:30:00,
2013-05-12 12:31:00,87.4,68.2,29.99,WNW,301,5.0,7.0,53,0.00,,---,0.00,VWS V14.01,2013-05-12 16:31:00,
2013-05-12 12:36:00,87.8,68.0,29.99,WNW,283,2.0,7.0,52,0.00,,---,0.00,VWS V14.01,2013-05-12 16:36:00,
2013-05-12 12:40:00,87.9,68.7,29.99,NW,307,2.0,7.0,53,0.00,,---,0.00,VWS V14.01,2013-05-12 16:40:00,
2013-05-12 12:41:00,88.1,68.3,29.98,WSW,257,0.0,5.0,52,0.00,,---,0.00,VWS V14.01,2013-05-12 16:41:00,
2013-05-12 12:46:00,88.2,68.9,29.98,WSW,255,2.0,5.0,53,0.00,,---,0.00,VWS V14.01,2013-05-12 16:46:00,
2013-05-12 12:50:00,88.3,68.5,29.98,WSW,256,3.0,6.0,52,0.00,,---,0.00,VWS V14.01,2013-05-12 16:50:00,
2013-05-12 12:51:00,88.4,68.6,29.98,WNW,283,3.0,5.0,52,0.00,,---,0.00,VWS V14.01,2013-05-12 16:51:00,
2013-05-12 12:56:00,88.1,68.8,29.98,WNW,300,1.0,7.0,53,0.00,,---,0.00,VWS V14.01,2013-05-12 16:56:00,
2013-05-12 13:00:00,88.0,68.7,29.98,West,266,0.0,7.0,53,0.00,,---,0.00,VWS V14.01,2013-05-12 17:00:00,
2013-05-12 13:01:00,88.2,68.9,29.98,WNW,297,2.0,5.0,53,0.00,,---,0.00,VWS V14.01,2013-05-12 17:01:00,
2013-05-12 13:06:00,88.4,68.6,29.98,West,260,3.0,8.0,52,0.00,,---,0.00,VWS V14.01,2013-05-12 17:06:00,
2013-05-12 13:10:00,88.4,68.6,29.98,West,281,2.0,8.0,52,0.00,,---,0.00,VWS V14.01,2013-05-12 17:10:00,
2013-05-12 13:12:00,88.5,68.6,29.98,South,177,2.0,5.0,52,0.00,,---,0.00,VWS V14.01,2013-05-12 17:12:00,
2013-05-12 13:17:00,88.7,67.7,29.98,WNW,289,3.0,5.0,50,0.00,,---,0.00,VWS V14.01,2013-05-12 17:17:00,
2013-05-12 13:20:00,88.2,67.2,29.98,West,274,1.0,6.0,50,0.00,,---,0.00,VWS V14.01,2013-05-12 17:20:00,
2013-05-12 13:22:00,87.5,68.3,29.98,West,278,1.0,5.0,53,0.00,,---,0.00,VWS V14.01,2013-05-12 17:22:00,
2013-05-12 13:27:00,87.9,68.1,29.98,West,269,1.0,6.0,52,0.00,,---,0.00,VWS V14.01,2013-05-12 17:27:00,
2013-05-12 13:30:00,87.7,67.9,29.98,WNW,297,6.0,6.0,52,0.00,,---,0.00,VWS V14.01,2013-05-12 17:30:00,
2013-05-12 13:32:00,87.4,68.2,29.97,West,277,1.0,7.0,53,0.00,,---,0.00,VWS V14.01,2013-05-12 17:32:00,
2013-05-12 13:37:00,87.5,68.3,29.97,WSW,252,3.0,7.0,53,0.00,,---,0.00,VWS V14.01,2013-05-12 17:37:00,
2013-05-12 13:40:00,87.5,67.7,29.97,WSW,245,6.0,7.0,52,0.00,,---,0.00,VWS V14.01,2013-05-12 17:40:00,
2013-05-12 13:42:00,87.6,68.4,29.97,West,267,4.0,7.0,53,0.00,,---,0.00,VWS V14.01,2013-05-12 17:42:00,
2013-05-12 13:47:00,87.3,67.5,29.97,WSW,245,3.0,8.0,52,0.00,,---,0.00,VWS V14.01,2013-05-12 17:47:00,
2013-05-12 13:50:00,87.0,67.3,29.97,WNW,294,1.0,8.0,52,0.00,,---,0.00,VWS V14.01,2013-05-12 17:50:00,
2013-05-12 13:52:00,87.0,67.8,29.97,NW,304,1.0,6.0,53,0.00,,---,0.00,VWS V14.01,2013-05-12 17:52:00,
2013-05-12 13:57:00,87.3,68.1,29.97,WSW,242,5.0,8.0,53,0.00,,---,0.00,VWS V14.01,2013-05-12 17:57:00,
2013-05-12 14:00:00,86.9,66.6,29.97,WNW,289,3.0,8.0,51,0.00,,---,0.00,VWS V14.01,2013-05-12 18:00:00,
2013-05-12 14:02:00,86.1,67.0,29.97,SW,236,5.0,10.0,53,0.00,,---,0.00,VWS V14.01,2013-05-12 18:02:00,
2013-05-12 14:07:00,86.8,67.6,29.97,WSW,249,1.0,10.0,53,0.00,,---,0.00,VWS V14.01,2013-05-12 18:07:00,
2013-05-12 14:10:00,87.1,68.4,29.97,SW,222,3.0,10.0,54,0.00,,---,0.00,VWS V14.01,2013-05-12 18:10:00,
2013-05-12 14:12:00,87.3,67.5,29.96,WSW,257,2.0,7.0,52,0.00,,---,0.00,VWS V14.01,2013-05-12 18:12:00,
2013-05-12 14:17:00,87.8,67.4,29.96,WNW,295,2.0,8.0,51,0.00,,---,0.00,VWS V14.01,2013-05-12 18:17:00,
2013-05-12 14:20:00,87.9,68.1,29.96,WSW,252,1.0,8.0,52,0.00,,---,0.00,VWS V14.01,2013-05-12 18:20:00,
2013-05-12 14:22:00,88.9,68.4,29.96,WSW,250,3.0,8.0,51,0.00,,---,0.00,VWS V14.01,2013-05-12 18:22:00,
2013-05-12 14:27:00,88.8,67.8,29.96,West,260,3.0,8.0,50,0.00,,---,0.00,VWS V14.01,2013-05-12 18:27:00,
2013-05-12 14:30:00,88.6,67.0,29.96,WSW,248,6.0,8.0,49,0.00,,---,0.00,VWS V14.01,2013-05-12 18:30:00,
2013-05-12 14:32:00,87.7,66.8,29.97,West,262,3.0,11.0,50,0.00,,---,0.00,VWS V14.01,2013-05-12 18:32:00,
2013-05-12 14:37:00,87.0,66.7,29.96,SW,224,3.0,11.0,51,0.00,,---,0.00,VWS V14.01,2013-05-12 18:37:00,
2013-05-12 14:40:00,86.8,66.5,29.97,WSW,252,6.0,11.0,51,0.00,,---,0.00,VWS V14.01,2013-05-12 18:40:00,
2013-05-12 14:42:00,86.9,66.6,29.96,WSW,252,5.0,8.0,51,0.00,,---,0.00,VWS V14.01,2013-05-12 18:42:00,
2013-05-12 14:47:00,87.2,67.4,29.96,West,262,6.0,8.0,52,0.00,,---,0.00,VWS V14.01,2013-05-12 18:47:00,
2013-05-12 14:50:00,87.1,66.8,29.96,WNW,283,5.0,8.0,51,0.00,,---,0.00,VWS V14.01,2013-05-12 18:50:00,
2013-05-12 14:53:00,86.9,67.2,29.96,West,280,3.0,7.0,52,0.00,,---,0.00,VWS V14.01,2013-05-12 18:53:00,
2013-05-12 14:58:00,87.4,68.2,29.96,West,267,3.0,7.0,53,0.00,,---,0.00,VWS V14.01,2013-05-12 18:58:00,
2013-05-12 15:00:00,87.5,67.7,29.96,West,266,3.0,7.0,52,0.00,,---,0.00,VWS V14.01,2013-05-12 19:00:00,
2013-05-12 15:03:00,88.1,67.7,29.96,West,277,2.0,8.0,51,0.00,,---,0.00,VWS V14.01,2013-05-12 19:03:00,
2013-05-12 15:08:00,88.2,67.2,29.96,WSW,255,3.0,8.0,50,0.00,,---,0.00,VWS V14.01,2013-05-12 19:08:00,
2013-05-12 15:10:00,88.1,67.1,29.96,WSW,250,3.0,8.0,50,0.00,,---,0.00,VWS V14.01,2013-05-12 19:10:00,
2013-05-12 15:13:00,88.3,67.9,29.96,West,280,3.0,9.0,51,0.00,,---,0.00,VWS V14.01,2013-05-12 19:13:00,
2013-05-12 15:18:00,87.7,66.8,29.96,WNW,290,3.0,10.0,50,0.00,,---,0.00,VWS V14.01,2013-05-12 19:18:00,
2013-05-12 15:20:00,87.5,66.6,29.96,WNW,285,4.0,10.0,50,0.00,,---,0.00,VWS V14.01,2013-05-12 19:20:00,
2013-05-12 15:23:00,87.5,67.2,29.96,West,266,4.0,8.0,51,0.00,,---,0.00,VWS V14.01,2013-05-12 19:23:00,
2013-05-12 15:28:00,87.4,66.5,29.96,WNW,291,3.0,11.0,50,0.00,,---,0.00,VWS V14.01,2013-05-12 19:28:00,
2013-05-12 15:30:00,87.4,67.1,29.96,West,267,4.0,11.0,51,0.00,,---,0.00,VWS V14.01,2013-05-12 19:30:00,
2013-05-12 15:33:00,87.6,66.7,29.95,NW,313,2.0,4.0,50,0.00,,---,0.00,VWS V14.01,2013-05-12 19:33:00,
2013-05-12 15:38:00,87.9,68.1,29.96,WSW,255,4.0,7.0,52,0.00,,---,0.00,VWS V14.01,2013-05-12 19:38:00,
2013-05-12 15:40:00,87.9,67.0,29.96,West,261,6.0,7.0,50,0.00,,---,0.00,VWS V14.01,2013-05-12 19:40:00,
2013-05-12 15:43:00,87.2,66.3,29.96,West,264,4.0,10.0,50,0.00,,---,0.00,VWS V14.01,2013-05-12 19:43:00,
2013-05-12 15:48:00,87.7,66.8,29.96,NW,309,7.0,11.0,50,0.00,,---,0.00,VWS V14.01,2013-05-12 19:48:00,
2013-05-12 15:50:00,87.7,66.2,29.96,West,263,3.0,11.0,49,0.00,,---,0.00,VWS V14.01,2013-05-12 19:50:00,
2013-05-12 15:53:00,87.5,66.6,29.96,WNW,287,7.0,12.0,50,0.00,,---,0.00,VWS V14.01,2013-05-12 19:53:00,
2013-05-12 15:58:00,86.7,65.9,29.96,WSW,246,7.0,12.0,50,0.00,,---,0.00,VWS V14.01,2013-05-12 19:58:00,
2013-05-12 16:00:00,86.6,66.3,29.96,WSW,254,5.0,12.0,51,0.00,,---,0.00,VWS V14.01,2013-05-12 20:00:00,
2013-05-12 16:03:00,86.6,65.8,29.96,West,268,5.0,8.0,50,0.00,,---,0.00,VWS V14.01,2013-05-12 20:03:00,
2013-05-12 16:08:00,86.2,65.4,29.96,WSW,253,4.0,8.0,50,0.00,,---,0.00,VWS V14.01,2013-05-12 20:08:00,
2013-05-12 16:10:00,86.1,65.3,29.96,WNW,300,2.0,8.0,50,0.00,,---,0.00,VWS V14.01,2013-05-12 20:10:00,
2013-05-12 16:13:00,85.8,65.6,29.96,West,268,4.0,8.0,51,0.00,,---,0.00,VWS V14.01,2013-05-12 20:13:00,
2013-05-12 16:18:00,85.9,65.7,29.95,West,274,4.0,9.0,51,0.00,,---,0.00,VWS V14.01,2013-05-12 20:18:00,
2013-05-12 16:20:00,85.9,65.7,29.95,WNW,297,5.0,9.0,51,0.00,,---,0.00,VWS V14.01,2013-05-12 20:20:00,
2013-05-12 16:23:00,86.1,65.9,29.95,WNW,292,3.0,11.0,51,0.00,,---,0.00,VWS V14.01,2013-05-12 20:23:00,
2013-05-12 16:28:00,87.0,66.7,29.95,West,272,5.0,11.0,51,0.00,,---,0.00,VWS V14.01,2013-05-12 20:28:00,
2013-05-12 16:30:00,87.0,66.7,29.95,WNW,290,4.0,11.0,51,0.00,,---,0.00,VWS V14.01,2013-05-12 20:30:00,
2013-05-12 16:33:00,87.3,67.0,29.95,WSW,245,4.0,7.0,51,0.00,,---,0.00,VWS V14.01,2013-05-12 20:33:00,
2013-05-12 16:38:00,87.4,65.9,29.95,WSW,255,5.0,8.0,49,0.00,,---,0.00,VWS V14.01,2013-05-12 20:38:00,
2013-05-12 16:40:00,87.4,65.9,29.95,West,260,3.0,8.0,49,0.00,,---,0.00,VWS V14.01,2013-05-12 20:40:00,
2013-05-12 16:43:00,86.6,66.3,29.95,WNW,298,2.0,8.0,51,0.00,,---,0.00,VWS V14.01,2013-05-12 20:43:00,
2013-05-12 16:48:00,87.1,66.2,29.95,WNW,291,3.0,8.0,50,0.00,,---,0.00,VWS V14.01,2013-05-12 20:48:00,
2013-05-12 16:50:00,87.1,66.2,29.95,WNW,291,3.0,8.0,50,0.00,,---,0.00,VWS V14.01,2013-05-12 20:50:00,
2013-05-12 16:53:00,86.1,65.3,29.95,West,260,3.0,12.0,50,0.00,,---,0.00,VWS V14.01,2013-05-12 20:53:00,
2013-05-12 16:59:00,85.5,65.9,29.95,WNW,293,5.0,12.0,52,0.00,,---,0.00,VWS V14.01,2013-05-12 20:59:00,
2013-05-12 17:00:00,85.5,65.9,29.95,WNW,293,5.0,12.0,52,0.00,,---,0.00,VWS V14.01,2013-05-12 21:00:00,
2013-05-12 17:04:00,85.3,65.1,29.95,WSW,243,2.0,7.0,51,0.00,,---,0.00,VWS V14.01,2013-05-12 21:04:00,
2013-05-12 17:09:00,85.3,65.1,29.95,WNW,291,3.0,3.0,51,0.00,,---,0.00,VWS V14.01,2013-05-12 21:09:00,
2013-05-12 17:10:00,85.3,65.1,29.95,WSW,255,3.0,9.0,51,0.00,,---,0.00,VWS V14.01,2013-05-12 21:10:00,
2013-05-12 17:14:00,85.7,65.5,29.95,NW,305,2.0,10.0,51,0.00,,---,0.00,VWS V14.01,2013-05-12 21:14:00,
2013-05-12 17:19:00,85.9,65.1,29.95,WNW,300,6.0,8.0,50,0.00,,---,0.00,VWS V14.01,2013-05-12 21:19:00,
2013-05-12 17:20:00,85.9,65.1,29.95,WSW,252,7.0,10.0,50,0.00,,---,0.00,VWS V14.01,2013-05-12 21:20:00,
2013-05-12 17:24:00,85.9,65.7,29.95,West,281,5.0,12.0,51,0.00,,---,0.00,VWS V14.01,2013-05-12 21:24:00,
2013-05-12 17:29:00,86.0,65.2,29.95,West,267,6.0,9.0,50,0.00,,---,0.00,VWS V14.01,2013-05-12 21:29:00,
2013-05-12 17:30:00,86.0,65.2,29.95,WSW,246,7.0,12.0,50,0.00,,---,0.00,VWS V14.01,2013-05-12 21:30:00,
2013-05-12 17:34:00,85.6,64.8,29.96,SW,215,6.0,11.0,50,0.00,,---,0.00,VWS V14.01,2013-05-12 21:34:00,
2013-05-12 17:39:00,85.2,65.6,29.96,West,273,2.0,3.0,52,0.00,,---,0.00,VWS V14.01,2013-05-12 21:39:00,
2013-05-12 17:40:00,85.2,65.6,29.96,WSW,239,2.0,13.0,52,0.00,,---,0.00,VWS V14.01,2013-05-12 21:40:00,
2013-05-12 17:44:00,85.1,65.0,29.96,West,260,5.0,10.0,51,0.00,,---,0.00,VWS V14.01,2013-05-12 21:44:00,
2013-05-12 17:49:00,84.7,65.7,29.96,NW,312,3.0,3.0,53,0.00,,---,0.00,VWS V14.01,2013-05-12 21:49:00,
2013-05-12 17:50:00,84.7,65.7,29.96,West,260,3.0,12.0,53,0.00,,---,0.00,VWS V14.01,2013-05-12 21:50:00,
2013-05-12 17:54:00,84.6,65.1,29.95,WNW,297,2.0,10.0,52,0.00,,---,0.00,VWS V14.01,2013-05-12 21:54:00,
2013-05-12 17:59:00,84.6,65.1,29.95,SW,235,3.0,9.0,52,0.00,,---,0.00,VWS V14.01,2013-05-12 21:59:00,
2013-05-12 18:00:00,84.6,65.1,29.95,NW,308,5.0,10.0,52,0.00,,---,0.00,VWS V14.01,2013-05-12 22:00:00,
2013-05-12 18:04:00,84.6,65.1,29.95,WSW,249,5.0,10.0,52,0.00,,---,0.00,VWS V14.01,2013-05-12 22:04:00,
2013-05-12 18:09:00,84.8,65.2,29.95,West,271,3.0,4.0,52,0.00,,---,0.00,VWS V14.01,2013-05-12 22:09:00,
2013-05-12 18:10:00,84.8,65.2,29.95,WNW,293,3.0,10.0,52,0.00,,---,0.00,VWS V14.01,2013-05-12 22:10:00,
2013-05-12 18:14:00,84.5,64.4,29.95,West,264,3.0,8.0,51,0.00,,---,0.00,VWS V14.01,2013-05-12 22:14:00,
2013-05-12 18:19:00,83.8,64.3,29.95,West,281,3.0,5.0,52,0.00,,---,0.00,VWS V14.01,2013-05-12 22:19:00,
2013-05-12 18:20:00,83.8,64.3,29.95,West,260,5.0,10.0,52,0.00,,---,0.00,VWS V14.01,2013-05-12 22:20:00,
2013-05-12 18:24:00,83.5,65.1,29.95,West,264,3.0,9.0,54,0.00,,---,0.00,VWS V14.01,2013-05-12 22:24:00,
2013-05-12 18:29:00,82.9,65.6,29.95,WSW,250,6.0,7.0,56,0.00,,---,0.00,VWS V14.01,2013-05-12 22:29:00,
2013-05-12 18:30:00,82.9,65.1,29.95,West,274,2.0,9.0,55,0.00,,---,0.00,VWS V14.01,2013-05-12 22:30:00,
2013-05-12 18:34:00,82.3,65.6,29.95,WSW,246,2.0,7.0,57,0.00,,---,0.00,VWS V14.01,2013-05-12 22:34:00,
2013-05-12 18:39:00,82.0,65.3,29.96,West,276,1.0,4.0,57,0.00,,---,0.00,VWS V14.01,2013-05-12 22:39:00,
2013-05-12 18:40:00,82.0,65.8,29.96,WSW,248,3.0,9.0,58,0.00,,---,0.00,VWS V14.01,2013-05-12 22:40:00,
2013-05-12 18:44:00,82.1,65.4,29.95,West,281,4.0,8.0,57,0.00,,---,0.00,VWS V14.01,2013-05-12 22:44:00,
2013-05-12 18:49:00,82.4,65.7,29.96,WNW,284,4.0,5.0,57,0.00,,---,0.00,VWS V14.01,2013-05-12 22:49:00,
2013-05-12 18:50:00,82.4,65.1,29.95,WNW,283,5.0,8.0,56,0.00,,---,0.00,VWS V14.01,2013-05-12 22:50:00,
2013-05-12 18:54:00,82.5,65.8,29.96,West,259,3.0,5.0,57,0.00,,---,0.00,VWS V14.01,2013-05-12 22:54:00,
2013-05-12 18:59:00,82.3,65.6,29.96,WSW,248,2.0,5.0,57,0.00,,---,0.00,VWS V14.01,2013-05-12 22:59:00,
2013-05-12 19:00:00,82.3,65.6,29.96,West,267,2.0,7.0,57,0.00,,---,0.00,VWS V14.01,2013-05-12 23:00:00,
2013-05-12 19:04:00,82.1,64.9,29.96,WNW,283,4.0,8.0,56,0.00,,---,0.00,VWS V14.01,2013-05-12 23:04:00,
2013-05-12 19:09:00,82.0,65.8,29.96,WSW,252,1.0,1.0,58,0.00,,---,0.00,VWS V14.01,2013-05-12 23:09:00,
2013-05-12 19:10:00,82.0,65.8,29.96,WSW,250,0.0,8.0,58,0.00,,---,0.00,VWS V14.01,2013-05-12 23:10:00,
2013-05-12 19:15:00,81.9,65.7,29.96,NW,308,2.0,5.0,58,0.00,,---,0.00,VWS V14.01,2013-05-12 23:15:00,
2013-05-12 19:20:00,81.4,65.2,29.96,WSW,243,3.0,6.0,58,0.00,,---,0.00,VWS V14.01,2013-05-12 23:20:00,
2013-05-12 19:25:00,80.8,65.2,29.97,WNW,291,3.0,6.0,59,0.00,,---,0.00,VWS V14.01,2013-05-12 23:25:00,
2013-05-12 19:30:00,80.2,64.6,29.97,WNW,299,2.0,5.0,59,0.00,,---,0.00,VWS V14.01,2013-05-12 23:30:00,
2013-05-12 19:35:00,79.7,65.1,29.97,WSW,255,4.0,8.0,61,0.00,,---,0.00,VWS V14.01,2013-05-12 23:35:00,
2013-05-12 19:40:00,79.3,64.7,29.98,SW,233,2.0,7.0,61,0.00,,---,0.00,VWS V14.01,2013-05-12 23:40:00,
2013-05-12 19:45:00,78.9,64.3,29.98,WNW,292,4.0,7.0,61,0.00,,---,0.00,VWS V14.01,2013-05-12 23:45:00,
2013-05-12 19:50:00,78.6,64.5,29.98,West,278,3.0,3.0,62,0.00,,---,0.00,VWS V14.01,2013-05-12 23:50:00,
2013-05-12 19:55:00,78.2,64.1,29.98,WSW,246,1.0,4.0,62,0.00,,---,0.00,VWS V14.01,2013-05-12 23:55:00,
2013-05-12 20:00:00,77.8,64.2,29.98,West,266,1.0,1.0,63,0.00,,---,0.00,VWS V14.01,2013-05-13 00:00:00,
2013-05-12 20:05:00,77.5,63.9,29.98,WSW,243,1.0,4.0,63,0.00,,---,0.00,VWS V14.01,2013-05-13 00:05:00,
2013-05-12 20:10:00,77.1,64.0,29.99,West,263,0.0,0.0,64,0.00,,---,0.00,VWS V14.01,2013-05-13 00:10:00,
2013-05-12 20:15:00,76.7,63.6,29.98,WNW,292,0.0,1.0,64,0.00,,---,0.00,VWS V14.01,2013-05-13 00:15:00,
2013-05-12 20:20:00,76.4,63.8,29.98,West,263,1.0,2.0,65,0.00,,---,0.00,VWS V14.01,2013-05-13 00:20:00,
2013-05-12 20:25:00,76.1,63.9,29.99,West,264,0.0,2.0,66,0.00,,---,0.00,VWS V14.01,2013-05-13 00:25:00,
2013-05-12 20:30:00,75.9,64.2,29.98,West,271,0.0,0.0,67,0.00,,---,0.00,VWS V14.01,2013-05-13 00:30:00,
2013-05-12 20:35:00,75.7,64.0,29.99,West,271,0.0,1.0,67,0.00,,---,0.00,VWS V14.01,2013-05-13 00:35:00,
2013-05-12 20:40:00,75.4,64.1,29.99,West,273,0.0,1.0,68,0.00,,---,0.00,VWS V14.01,2013-05-13 00:40:00,
2013-05-12 20:45:00,75.2,63.9,29.99,WNW,288,0.0,1.0,68,0.00,,---,0.00,VWS V14.01,2013-05-13 00:45:00,
2013-05-12 20:50:00,75.0,64.2,29.99,NW,307,0.0,1.0,69,0.00,,---,0.00,VWS V14.01,2013-05-13 00:50:00,
2013-05-12 20:55:00,74.8,64.0,29.99,West,270,0.0,2.0,69,0.00,,---,0.00,VWS V14.01,2013-05-13 00:55:00,
2013-05-12 21:00:00,74.6,64.2,29.99,West,273,0.0,0.0,70,0.00,,---,0.00,VWS V14.01,2013-05-13 01:00:00,
2013-05-12 21:05:00,74.3,63.9,29.99,West,273,0.0,0.0,70,0.00,,---,0.00,VWS V14.01,2013-05-13 01:05:00,
2013-05-12 21:10:00,74.2,64.2,29.99,WNW,283,0.0,0.0,71,0.00,,---,0.00,VWS V14.01,2013-05-13 01:10:00,
2013-05-12 21:11:00,74.1,64.1,29.99,WSW,255,2.0,2.0,71,0.00,,---,0.00,VWS V14.01,2013-05-13 01:11:00,
2013-05-12 21:16:00,74.0,64.0,30.00,West,276,0.0,2.0,71,0.00,,---,0.00,VWS V14.01,2013-05-13 01:16:00,
2013-05-12 21:20:00,73.9,63.9,30.00,West,276,0.0,2.0,71,0.00,,---,0.00,VWS V14.01,2013-05-13 01:20:00,
2013-05-12 21:21:00,73.8,63.8,30.00,West,276,0.0,1.0,71,0.00,,---,0.00,VWS V14.01,2013-05-13 01:21:00,
2013-05-12 21:26:00,73.5,63.9,30.00,WSW,250,0.0,2.0,72,0.00,,---,0.00,VWS V14.01,2013-05-13 01:26:00,
2013-05-12 21:30:00,73.5,63.9,30.00,WNW,290,0.0,2.0,72,0.00,,---,0.00,VWS V14.01,2013-05-13 01:30:00,
2013-05-12 21:31:00,73.4,63.8,30.00,WSW,250,0.0,2.0,72,0.00,,---,0.00,VWS V14.01,2013-05-13 01:31:00,
2013-05-12 21:36:00,73.2,64.0,30.00,WSW,250,0.0,2.0,73,0.00,,---,0.00,VWS V14.01,2013-05-13 01:36:00,
2013-05-12 21:40:00,73.0,63.8,30.00,WSW,250,0.0,2.0,73,0.00,,---,0.00,VWS V14.01,2013-05-13 01:40:00,
2013-05-12 21:41:00,72.9,64.1,30.01,West,277,0.0,1.0,74,0.00,,---,0.00,VWS V14.01,2013-05-13 01:41:00,
2013-05-12 21:46:00,72.6,63.8,30.01,West,277,0.0,1.0,74,0.00,,---,0.00,VWS V14.01,2013-05-13 01:46:00,
2013-05-12 21:50:00,72.5,64.1,30.01,West,267,0.0,1.0,75,0.00,,---,0.00,VWS V14.01,2013-05-13 01:50:00,
2013-05-12 21:51:00,72.5,64.1,30.02,West,267,0.0,0.0,75,0.00,,---,0.00,VWS V14.01,2013-05-13 01:51:00,
2013-05-12 21:56:00,72.3,63.9,30.02,West,267,0.0,0.0,75,0.00,,---,0.00,VWS V14.01,2013-05-13 01:56:00,
2013-05-12 22:00:00,72.1,64.1,30.02,WSW,250,0.0,1.0,76,0.00,,---,0.00,VWS V14.01,2013-05-13 02:00:00,
2013-05-12 22:01:00,72.0,64.0,30.02,WSW,256,0.0,1.0,76,0.00,,---,0.00,VWS V14.01,2013-05-13 02:01:00,
2013-05-12 22:06:00,71.8,64.2,30.02,WNW,303,0.0,2.0,77,0.00,,---,0.00,VWS V14.01,2013-05-13 02:06:00,
2013-05-12 22:10:00,71.7,64.1,30.02,NW,304,0.0,2.0,77,0.00,,---,0.00,VWS V14.01,2013-05-13 02:10:00,
2013-05-12 22:11:00,71.7,64.1,30.02,WNW,303,0.0,0.0,77,0.00,,---,0.00,VWS V14.01,2013-05-13 02:11:00,
2013-05-12 22:16:00,71.5,64.3,30.02,WNW,287,0.0,1.0,78,0.00,,---,0.00,VWS V14.01,2013-05-13 02:16:00,
2013-05-12 22:20:00,71.5,64.3,30.02,West,280,0.0,1.0,78,0.00,,---,0.00,VWS V14.01,2013-05-13 02:20:00,
2013-05-12 22:21:00,71.4,64.2,30.02,WNW,285,0.0,1.0,78,0.00,,---,0.00,VWS V14.01,2013-05-13 02:21:00,
2013-05-12 22:26:00,71.3,64.5,30.02,WSW,245,0.0,2.0,79,0.00,,---,0.00,VWS V14.01,2013-05-13 02:26:00,
2013-05-12 22:30:00,71.2,64.4,30.02,WSW,240,0.0,2.0,79,0.00,,---,0.00,VWS V14.01,2013-05-13 02:30:00,
2013-05-12 22:31:00,71.1,64.6,30.02,West,262,0.0,1.0,80,0.00,,---,0.00,VWS V14.01,2013-05-13 02:31:00,
2013-05-12 22:36:00,70.9,64.4,30.02,West,261,0.0,1.0,80,0.00,,---,0.00,VWS V14.01,2013-05-13 02:36:00,
2013-05-12 22:40:00,70.8,64.7,30.02,West,261,0.0,1.0,81,0.00,,---,0.00,VWS V14.01,2013-05-13 02:40:00,
2013-05-12 22:41:00,70.7,64.6,30.03,West,262,0.0,1.0,81,0.00,,---,0.00,VWS V14.01,2013-05-13 02:41:00,
2013-05-12 22:46:00,70.5,64.8,30.03,WSW,252,0.0,1.0,82,0.00,,---,0.00,VWS V14.01,2013-05-13 02:46:00,
2013-05-12 22:50:00,70.5,64.8,30.03,WSW,252,0.0,1.0,82,0.00,,---,0.00,VWS V14.01,2013-05-13 02:50:00,
2013-05-12 22:51:00,70.4,64.7,30.03,West,270,0.0,1.0,82,0.00,,---,0.00,VWS V14.01,2013-05-13 02:51:00,
2013-05-12 22:57:00,70.3,64.6,30.03,West,270,0.0,1.0,82,0.00,,---,0.00,VWS V14.01,2013-05-13 02:57:00,
2013-05-12 23:00:00,70.2,64.4,30.03,West,270,0.0,1.0,82,0.00,,---,0.00,VWS V14.01,2013-05-13 03:00:00,
2013-05-12 23:02:00,70.1,64.4,30.03,West,270,0.0,1.0,82,0.00,,---,0.00,VWS V14.01,2013-05-13 03:02:00,
2013-05-12 23:07:00,69.9,64.5,30.03,West,270,0.0,1.0,83,0.00,,---,0.00,VWS V14.01,2013-05-13 03:07:00,
2013-05-12 23:10:00,69.8,64.4,30.03,West,270,0.0,1.0,83,0.00,,---,0.00,VWS V14.01,2013-05-13 03:10:00,
2013-05-12 23:12:00,69.7,64.3,30.03,West,270,0.0,1.0,83,0.00,,---,0.00,VWS V14.01,2013-05-13 03:12:00,
2013-05-12 23:17:00,69.6,64.6,30.03,West,263,1.0,1.0,84,0.00,,---,0.00,VWS V14.01,2013-05-13 03:17:00,
2013-05-12 23:20:00,69.6,64.6,30.03,West,263,0.0,1.0,84,0.00,,---,0.00,VWS V14.01,2013-05-13 03:20:00,
2013-05-12 23:22:00,69.6,64.6,30.04,West,262,1.0,2.0,84,0.00,,---,0.00,VWS V14.01,2013-05-13 03:22:00,
2013-05-12 23:27:00,69.7,64.7,30.04,WSW,257,1.0,2.0,84,0.00,,---,0.00,VWS V14.01,2013-05-13 03:27:00,
2013-05-12 23:30:00,69.8,65.1,30.04,WSW,246,0.0,2.0,85,0.00,,---,0.00,VWS V14.01,2013-05-13 03:30:00,
2013-05-12 23:32:00,69.8,65.1,30.04,WSW,248,0.0,1.0,85,0.00,,---,0.00,VWS V14.01,2013-05-13 03:32:00,
2013-05-12 23:37:00,69.8,65.1,30.04,WSW,255,0.0,1.0,85,0.00,,---,0.00,VWS V14.01,2013-05-13 03:37:00,
2013-05-12 23:40:00,69.7,65.0,30.04,WSW,257,0.0,1.0,85,0.00,,---,0.00,VWS V14.01,2013-05-13 03:40:00,
2013-05-12 23:42:00,69.7,65.3,30.04,WNW,285,0.0,0.0,86,0.00,,---,0.00,VWS V14.01,2013-05-13 03:42:00,
2013-05-12 23:47:00,69.6,65.2,30.04,WSW,252,0.0,0.0,86,0.00,,---,0.00,VWS V14.01,2013-05-13 03:47:00,
2013-05-12 23:50:00,69.6,65.2,30.04,WSW,252,0.0,0.0,86,0.00,,---,0.00,VWS V14.01,2013-05-13 03:50:00,
2013-05-12 23:52:00,69.5,65.5,30.04,WSW,254,0.0,0.0,87,0.00,,---,0.00,VWS V14.01,2013-05-13 03:52:00,
2013-05-12 23:57:00,69.6,65.6,30.03,WSW,257,0.0,0.0,87,0.00,,---,0.00,VWS V14.01,2013-05-13 03:57:00,